Time;durP1;ratioP1;P1;durP2;ratioP2;P2;SDS_P1;SDS_P2;PMS_P1;PMS_P2;Temp;Humidity;BMP_temperature;BMP_pressure;BME280_temperature;BME280_humidity;BME280_pressure;Samples;Min_cycle;Max_cycle;Signal;HPM_P1;HPM_P2
2022/05/08 00:00:28;;;;;;;15.30;2.95;;;9.10;99.90;;;;;;5136194;27;20100;-78
2022/05/08 00:02:55;;;;;;;18.02;2.95;;;9.00;99.90;;;;;;5135276;27;20039;-77
2022/05/08 00:05:21;;;;;;;19.88;3.58;;;8.90;99.90;;;;;;5136698;27;20047;-78
2022/05/08 00:07:47;;;;;;;18.90;3.72;;;8.90;99.90;;;;;;5136307;27;20039;-78
2022/05/08 00:10:12;;;;;;;11.93;3.17;;;8.90;99.90;;;;;;5136251;27;20066;-78
2022/05/08 00:12:38;;;;;;;15.50;3.50;;;8.80;99.90;;;;;;5136289;27;20073;-78
2022/05/08 00:15:04;;;;;;;10.60;3.22;;;8.80;99.90;;;;;;5134857;27;20047;-78
2022/05/08 00:17:34;;;;;;;16.17;3.67;;;8.70;99.90;;;;;;5135769;27;20050;-79
2022/05/08 00:20:01;;;;;;;21.17;3.47;;;8.70;99.90;;;;;;5136061;27;20046;-78
2022/05/08 00:22:27;;;;;;;21.42;4.32;;;8.60;99.90;;;;;;5135926;27;20042;-78
2022/05/08 00:24:52;;;;;;;15.23;3.50;;;8.60;99.90;;;;;;5135948;27;20039;-78
2022/05/08 00:27:19;;;;;;;15.13;3.33;;;8.60;99.90;;;;;;5135878;27;20134;-78
2022/05/08 00:29:44;;;;;;;14.82;3.70;;;8.60;99.90;;;;;;5135682;27;20085;-78
2022/05/08 00:32:10;;;;;;;17.85;3.03;;;8.50;99.90;;;;;;5135877;27;20039;-78
2022/05/08 00:34:35;;;;;;;13.15;3.08;;;8.50;99.90;;;;;;5135681;27;20047;-78
2022/05/08 00:37:01;;;;;;;12.27;3.28;;;8.50;99.90;;;;;;5135551;27;20475;-78
2022/05/08 00:39:27;;;;;;;16.27;2.75;;;8.40;99.90;;;;;;5135691;27;20039;-77
2022/05/08 00:41:52;;;;;;;18.45;4.05;;;8.50;99.90;;;;;;5135505;27;20398;-77
2022/05/08 00:44:18;;;;;;;13.15;3.47;;;8.40;99.90;;;;;;5135533;27;20050;-77
2022/05/08 00:46:43;;;;;;;20.02;4.07;;;8.40;99.90;;;;;;5135474;27;20043;-77
2022/05/08 00:49:09;;;;;;;19.10;3.42;;;8.40;99.90;;;;;;5135459;27;20082;-77
2022/05/08 00:51:36;;;;;;;20.95;3.95;;;8.30;99.90;;;;;;5134776;27;20429;-77
2022/05/08 00:54:03;;;;;;;18.15;3.10;;;8.30;99.90;;;;;;5135287;27;20423;-77
2022/05/08 00:56:29;;;;;;;13.90;2.72;;;8.30;99.90;;;;;;5135188;27;20517;-77
2022/05/08 00:58:55;;;;;;;15.43;3.10;;;8.20;99.90;;;;;;5134977;27;20046;-77
2022/05/08 01:01:21;;;;;;;15.50;3.55;;;8.20;99.90;;;;;;5135268;27;20039;-77
2022/05/08 01:03:47;;;;;;;15.15;3.88;;;8.10;99.90;;;;;;5135365;27;20494;-78
2022/05/08 01:06:18;;;;;;;14.30;3.47;;;8.10;99.90;;;;;;5135179;27;20043;-77
2022/05/08 01:08:46;;;;;;;13.63;3.63;;;8.10;99.90;;;;;;5135184;27;20051;-77
2022/05/08 01:11:12;;;;;;;14.75;3.65;;;8.00;99.90;;;;;;5135276;27;20039;-79
2022/05/08 01:13:39;;;;;;;16.80;3.63;;;8.00;99.90;;;;;;5134434;27;20430;-77
2022/05/08 01:16:09;;;;;;;15.60;3.25;;;8.00;99.90;;;;;;5134907;27;20096;-77
2022/05/08 01:18:35;;;;;;;18.50;3.35;;;7.90;99.90;;;;;;5133889;27;20050;-78
2022/05/08 01:21:01;;;;;;;13.57;3.55;;;7.90;99.90;;;;;;5135042;27;20043;-78
2022/05/08 01:23:27;;;;;;;11.68;3.30;;;7.90;99.90;;;;;;5134767;27;20039;-78
2022/05/08 01:25:55;;;;;;;17.17;3.35;;;7.80;99.90;;;;;;5134774;27;20129;-77
2022/05/08 01:28:22;;;;;;;18.42;3.63;;;7.80;99.90;;;;;;5134128;27;20047;-78
2022/05/08 01:30:50;;;;;;;12.85;3.17;;;7.80;99.90;;;;;;5134916;27;20051;-78
2022/05/08 01:33:17;;;;;;;15.32;3.67;;;7.70;99.90;;;;;;5134703;27;20387;-78
2022/05/08 01:35:43;;;;;;;20.63;3.38;;;7.70;99.90;;;;;;5134885;27;20047;-77
2022/05/08 01:38:11;;;;;;;15.27;3.10;;;7.70;99.90;;;;;;5134973;27;20035;-76
2022/05/08 01:40:37;;;;;;;12.68;3.00;;;7.60;99.90;;;;;;5134495;27;20039;-77
2022/05/08 01:43:03;;;;;;;11.15;3.08;;;7.60;99.90;;;;;;5135194;28;20039;-77
2022/05/08 01:45:30;;;;;;;15.98;3.35;;;7.60;99.90;;;;;;5134571;27;20127;-77
2022/05/08 01:50:40;;;;;;;18.20;3.28;;;7.60;99.90;;;;;;5134794;28;20051;-78
2022/05/08 01:53:06;;;;;;;17.90;3.65;;;7.50;99.90;;;;;;5134678;28;20376;-78
2022/05/08 01:55:32;;;;;;;14.05;3.28;;;7.50;99.90;;;;;;5134492;27;20490;-77
2022/05/08 01:57:58;;;;;;;18.83;3.83;;;7.40;99.90;;;;;;5134485;27;20079;-77
2022/05/08 02:00:25;;;;;;;17.77;3.15;;;7.40;99.90;;;;;;5133497;28;20128;-77
2022/05/08 02:02:51;;;;;;;12.48;3.05;;;7.40;99.90;;;;;;5136092;27;20049;-77
2022/05/08 02:05:18;;;;;;;13.50;3.45;;;7.30;99.90;;;;;;5138539;27;20129;-78
2022/05/08 02:07:45;;;;;;;12.50;2.75;;;7.20;99.90;;;;;;5138836;27;20047;-78
2022/05/08 02:10:11;;;;;;;14.30;3.10;;;7.20;99.90;;;;;;5138265;27;20127;-78
2022/05/08 02:12:37;;;;;;;9.10;3.67;;;7.20;99.90;;;;;;5138471;27;20483;-78
2022/05/08 02:15:03;;;;;;;17.05;3.80;;;7.10;99.90;;;;;;5138241;27;20142;-78
2022/05/08 02:17:28;;;;;;;16.75;3.25;;;7.10;99.90;;;;;;5138218;27;20083;-78
2022/05/08 02:19:54;;;;;;;14.80;3.58;;;7.10;99.90;;;;;;5138592;27;20051;-77
2022/05/08 02:22:20;;;;;;;12.20;3.33;;;7.00;99.90;;;;;;5138250;27;20470;-77
2022/05/08 02:24:45;;;;;;;12.75;4.15;;;7.00;99.90;;;;;;5137893;27;20047;-77
2022/05/08 02:27:11;;;;;;;18.38;3.83;;;6.90;99.90;;;;;;5137481;27;20050;-77
2022/05/08 02:29:36;;;;;;;12.35;3.38;;;6.90;99.90;;;;;;5137871;27;20069;-77
2022/05/08 02:32:03;;;;;;;13.13;3.45;;;6.80;99.90;;;;;;5138002;27;20100;-78
2022/05/08 02:34:28;;;;;;;17.33;3.60;;;6.80;99.90;;;;;;5138289;27;20398;-77
2022/05/08 02:36:54;;;;;;;22.15;3.75;;;6.70;99.90;;;;;;5136953;27;20047;-77
2022/05/08 02:39:19;;;;;;;14.23;3.30;;;6.70;99.90;;;;;;5137776;27;20047;-77
2022/05/08 02:41:45;;;;;;;15.77;3.53;;;6.70;99.90;;;;;;5138653;27;20039;-78
2022/05/08 02:44:11;;;;;;;14.07;4.17;;;6.60;99.90;;;;;;5137986;27;20050;-78
2022/05/08 02:46:36;;;;;;;16.80;3.40;;;6.60;99.90;;;;;;5137883;27;20065;-77
2022/05/08 02:49:02;;;;;;;19.08;3.90;;;6.60;99.90;;;;;;5137488;27;20043;-77
2022/05/08 02:51:28;;;;;;;17.88;3.72;;;6.50;99.90;;;;;;5137720;27;20051;-77
2022/05/08 02:53:53;;;;;;;12.48;3.28;;;6.40;99.90;;;;;;5136173;27;20117;-77
2022/05/08 02:59:03;;;;;;;15.57;3.25;;;6.30;99.90;;;;;;5138013;27;20047;-77
2022/05/08 03:01:28;;;;;;;14.90;3.95;;;6.30;99.90;;;;;;5137611;27;20035;-77
2022/05/08 03:03:54;;;;;;;14.23;3.53;;;6.20;99.90;;;;;;5137536;27;20046;-78
2022/05/08 03:06:20;;;;;;;14.32;3.38;;;6.30;99.90;;;;;;5137245;27;20066;-78
2022/05/08 03:08:45;;;;;;;16.20;4.22;;;6.20;99.90;;;;;;5137445;27;20891;-78
2022/05/08 03:11:26;;;;;;;13.77;3.33;;;6.20;99.90;;;;;;5137435;27;20469;-78
2022/05/08 03:13:53;;;;;;;11.07;3.35;;;6.10;99.90;;;;;;5135308;27;20043;-78
2022/05/08 03:16:19;;;;;;;12.80;3.15;;;6.10;99.90;;;;;;5137579;27;20050;-78
2022/05/08 03:18:45;;;;;;;11.20;3.13;;;6.10;99.90;;;;;;5137273;27;20495;-78
2022/05/08 03:21:12;;;;;;;14.48;3.65;;;6.00;99.90;;;;;;5137223;27;20073;-77
2022/05/08 03:23:42;;;;;;;12.38;3.22;;;6.00;99.90;;;;;;5137330;27;20047;-78
2022/05/08 03:26:08;;;;;;;16.08;3.55;;;6.00;99.90;;;;;;5137522;27;20085;-79
2022/05/08 03:28:36;;;;;;;14.75;3.38;;;5.90;99.90;;;;;;5137165;27;20093;-78
2022/05/08 03:31:02;;;;;;;15.65;4.38;;;5.80;99.90;;;;;;5136874;27;20039;-77
2022/05/08 03:33:29;;;;;;;15.20;3.20;;;5.80;99.90;;;;;;5136888;27;20046;-77
2022/05/08 03:35:55;;;;;;;10.82;3.58;;;5.80;99.90;;;;;;5136953;27;20125;-77
2022/05/08 03:38:21;;;;;;;10.70;2.90;;;5.80;99.90;;;;;;5136324;27;20135;-77
2022/05/08 03:40:47;;;;;;;17.58;3.78;;;5.80;99.90;;;;;;5137247;27;20050;-78
2022/05/08 03:43:12;;;;;;;17.42;4.40;;;5.70;99.90;;;;;;5136881;27;20039;-77
2022/05/08 03:45:38;;;;;;;16.83;4.15;;;5.70;99.90;;;;;;5136841;27;20040;-77
2022/05/08 03:48:04;;;;;;;19.75;3.78;;;5.70;99.90;;;;;;5135621;27;20130;-78
2022/05/08 03:50:30;;;;;;;15.65;4.15;;;5.70;99.90;;;;;;5136701;27;20486;-78
2022/05/08 03:53:01;;;;;;;13.80;3.60;;;5.70;99.90;;;;;;5136561;27;20132;-78
2022/05/08 03:55:27;;;;;;;10.30;3.53;;;5.60;99.90;;;;;;5136650;27;20047;-78
2022/05/08 03:57:53;;;;;;;11.95;3.80;;;5.60;99.90;;;;;;5136801;27;20561;-79
2022/05/08 04:00:19;;;;;;;8.45;3.60;;;5.60;99.90;;;;;;5136408;27;20555;-78
2022/05/08 04:02:45;;;;;;;12.13;3.58;;;5.60;99.90;;;;;;5136430;27;20410;-78
2022/05/08 04:05:11;;;;;;;13.32;3.28;;;5.60;99.90;;;;;;5136267;27;20035;-78
2022/05/08 04:07:40;;;;;;;11.93;3.30;;;5.60;99.90;;;;;;5136558;27;20043;-78
2022/05/08 04:10:07;;;;;;;12.82;3.08;;;5.60;99.90;;;;;;5136421;27;20035;-78
2022/05/08 04:12:33;;;;;;;10.85;3.80;;;5.60;99.90;;;;;;5136099;27;20043;-78
2022/05/08 04:14:59;;;;;;;11.20;3.20;;;5.60;99.90;;;;;;5135991;27;20095;-78
2022/05/08 04:17:26;;;;;;;13.30;4.20;;;5.60;99.90;;;;;;5135908;27;20047;-78
2022/05/08 04:19:52;;;;;;;9.82;3.80;;;5.60;99.90;;;;;;5135781;27;20051;-78
2022/05/08 04:25:02;;;;;;;19.98;5.32;;;5.60;99.90;;;;;;5135898;27;20086;-79
2022/05/08 04:27:27;;;;;;;14.52;4.03;;;5.60;99.90;;;;;;5135955;27;20408;-78
2022/05/08 04:29:53;;;;;;;15.02;4.97;;;5.70;99.90;;;;;;5135982;27;20403;-78
2022/05/08 04:32:18;;;;;;;12.57;4.18;;;5.70;99.90;;;;;;5135777;27;20386;-77
2022/05/08 04:34:44;;;;;;;16.00;4.72;;;5.70;99.90;;;;;;5135723;27;20386;-77
2022/05/08 04:37:09;;;;;;;11.60;3.53;;;5.80;99.90;;;;;;5135721;27;20049;-77
2022/05/08 04:39:36;;;;;;;17.60;4.25;;;5.80;99.90;;;;;;5135672;27;20150;-78
2022/05/08 04:42:02;;;;;;;13.13;3.47;;;5.90;99.90;;;;;;5135583;27;20039;-78
2022/05/08 04:44:28;;;;;;;15.25;4.75;;;5.90;99.90;;;;;;5135524;27;20054;-78
2022/05/08 04:46:54;;;;;;;9.05;4.03;;;5.90;99.90;;;;;;5135498;27;20043;-78
2022/05/08 04:49:19;;;;;;;17.00;4.22;;;6.00;99.90;;;;;;5135529;27;20049;-78
2022/05/08 04:51:45;;;;;;;10.02;3.88;;;6.00;99.90;;;;;;5135726;27;20054;-78
2022/05/08 04:54:11;;;;;;;14.02;4.30;;;6.00;99.90;;;;;;5135412;27;20050;-78
2022/05/08 04:56:36;;;;;;;14.88;5.07;;;6.10;99.90;;;;;;5135407;27;20047;-78
2022/05/08 04:59:02;;;;;;;10.27;3.83;;;6.10;99.90;;;;;;5135416;27;20039;-78
2022/05/08 05:01:28;;;;;;;15.50;4.35;;;6.20;99.90;;;;;;5135066;27;20051;-78
2022/05/08 05:03:55;;;;;;;14.77;3.85;;;6.20;99.90;;;;;;5135323;27;20043;-80
2022/05/08 05:06:21;;;;;;;12.27;4.15;;;6.40;99.90;;;;;;5135206;27;20129;-78
2022/05/08 05:08:46;;;;;;;12.50;4.00;;;6.50;99.90;;;;;;5135213;27;20133;-77
2022/05/08 05:11:12;;;;;;;14.43;4.32;;;6.60;99.90;;;;;;5135206;27;20581;-77
2022/05/08 05:13:38;;;;;;;13.48;4.13;;;6.70;99.90;;;;;;5133929;27;20486;-78
2022/05/08 05:16:04;;;;;;;15.00;4.55;;;6.80;99.90;;;;;;5135173;27;20047;-77
2022/05/08 05:18:30;;;;;;;13.98;3.85;;;7.20;99.90;;;;;;5135060;27;20122;-78
2022/05/08 05:20:55;;;;;;;13.80;3.95;;;6.90;99.90;;;;;;5134851;27;20502;-78
2022/05/08 05:23:21;;;;;;;12.05;3.97;;;7.00;99.90;;;;;;5134826;27;20117;-75
2022/05/08 05:25:46;;;;;;;13.63;3.75;;;7.00;99.90;;;;;;5134834;27;20043;-77
2022/05/08 05:28:12;;;;;;;14.73;3.92;;;7.00;99.90;;;;;;5134743;27;20046;-77
2022/05/08 05:30:37;;;;;;;14.95;4.93;;;7.10;99.90;;;;;;5134428;27;20047;-82
2022/05/08 05:33:03;;;;;;;15.85;4.43;;;7.00;99.90;;;;;;5133783;27;20047;-78
2022/05/08 05:35:28;;;;;;;19.73;4.22;;;7.10;99.90;;;;;;5134776;27;20043;-76
2022/05/08 05:37:54;;;;;;;12.70;4.25;;;7.10;99.90;;;;;;5134022;27;20126;-74
2022/05/08 05:40:20;;;;;;;12.30;4.32;;;7.10;99.90;;;;;;5134980;27;20096;-81
2022/05/08 05:42:49;;;;;;;21.00;4.07;;;7.10;99.90;;;;;;5133688;28;20043;-81
2022/05/08 05:45:14;;;;;;;11.77;4.20;;;7.20;99.90;;;;;;5134653;28;20051;-77
2022/05/08 05:47:49;;;;;;;16.75;4.55;;;7.30;99.90;;;;;;5134672;28;20039;-78
2022/05/08 05:50:15;;;;;;;11.13;3.88;;;7.40;99.90;;;;;;5134680;28;20043;-77
2022/05/08 05:52:41;;;;;;;13.90;3.83;;;7.50;99.90;;;;;;5134500;27;20475;-77
2022/05/08 05:55:07;;;;;;;13.43;4.00;;;7.60;99.90;;;;;;5134314;28;20043;-78
2022/05/08 05:57:34;;;;;;;13.53;3.93;;;7.80;99.90;;;;;;5134397;27;20513;-79
2022/05/08 06:00:00;;;;;;;15.07;3.35;;;7.90;99.90;;;;;;5134945;27;20054;-79
2022/05/08 06:02:26;;;;;;;13.98;3.78;;;8.00;99.90;;;;;;5134459;27;20047;-77
2022/05/08 06:04:52;;;;;;;14.70;3.55;;;8.20;99.90;;;;;;5134791;28;20035;-77
2022/05/08 06:07:17;;;;;;;10.63;3.03;;;8.30;99.90;;;;;;5134490;28;20043;-76
2022/05/08 06:09:43;;;;;;;11.13;3.40;;;8.60;99.90;;;;;;5134499;28;20100;-76
2022/05/08 06:12:09;;;;;;;8.57;3.78;;;8.80;99.90;;;;;;5134556;28;20070;-74
2022/05/08 06:14:35;;;;;;;12.10;3.17;;;9.00;99.90;;;;;;5133996;27;20062;-75
2022/05/08 06:17:00;;;;;;;13.43;3.70;;;9.10;99.90;;;;;;5134388;27;20402;-76
2022/05/08 06:19:26;;;;;;;9.52;2.70;;;9.30;99.90;;;;;;5133126;28;20130;-77
2022/05/08 06:21:52;;;;;;;8.25;2.63;;;9.50;99.90;;;;;;5134407;28;20122;-78
2022/05/08 06:24:17;;;;;;;11.82;3.35;;;9.60;99.90;;;;;;5134137;27;20570;-79
2022/05/08 06:26:43;;;;;;;13.55;2.55;;;9.80;99.90;;;;;;5134137;27;20047;-78
2022/05/08 06:29:09;;;;;;;9.95;2.67;;;9.90;99.90;;;;;;5134295;28;20039;-77
2022/05/08 06:31:34;;;;;;;10.48;2.38;;;10.10;99.90;;;;;;5133933;27;20124;-78
2022/05/08 06:34:00;;;;;;;7.97;2.42;;;10.20;99.90;;;;;;5133875;28;20047;-83
2022/05/08 06:36:28;;;;;;;9.40;2.28;;;10.30;99.90;;;;;;5134224;28;20043;-76
2022/05/08 06:38:54;;;;;;;7.43;2.25;;;10.50;99.90;;;;;;5134105;27;20043;-79
2022/05/08 06:41:20;;;;;;;7.72;2.28;;;10.70;99.90;;;;;;5134206;28;20035;-77
2022/05/08 06:43:45;;;;;;;12.45;2.10;;;10.80;99.90;;;;;;5134079;28;20534;-78
2022/05/08 06:46:11;;;;;;;13.52;2.78;;;10.80;99.90;;;;;;5133741;27;20043;-77
2022/05/08 06:48:38;;;;;;;11.48;2.30;;;10.70;99.90;;;;;;5115926;27;20099;-77
2022/05/08 06:51:04;;;;;;;13.77;2.58;;;10.70;99.90;;;;;;5124594;27;20043;-78
2022/05/08 06:53:30;;;;;;;12.10;2.38;;;10.60;99.90;;;;;;5137795;27;20046;-84
2022/05/08 06:55:56;;;;;;;;;;;10.70;99.90;;;;;;5103353;27;20179;-79
2022/05/08 06:58:24;;;;;;;9.38;1.70;;;10.70;99.90;;;;;;5137557;27;20331;-82
2022/05/08 07:03:34;;;;;;;9.23;2.10;;;10.80;99.90;;;;;;5137567;27;20043;-78
2022/05/08 07:06:00;;;;;;;10.48;2.85;;;10.80;99.90;;;;;;5118675;27;20111;-79
2022/05/08 07:08:26;;;;;;;7.10;2.50;;;10.80;99.90;;;;;;5116566;28;20043;-79
2022/05/08 07:10:52;;;;;;;11.23;1.95;;;10.90;99.90;;;;;;5116632;28;20054;-79
2022/05/08 07:13:22;;;;;;;10.98;2.67;;;11.00;99.90;;;;;;5115377;28;20122;-79
2022/05/08 07:15:48;;;;;;;9.68;1.73;;;11.00;99.90;;;;;;5116913;28;20056;-81
2022/05/08 07:18:13;;;;;;;7.57;1.95;;;11.00;99.90;;;;;;5116749;28;20081;-80
2022/05/08 07:20:39;;;;;;;11.15;2.13;;;11.00;99.90;;;;;;5115621;28;20096;-81
2022/05/08 07:23:05;;;;;;;9.45;1.83;;;10.90;99.90;;;;;;5116741;28;20036;-82
2022/05/08 07:25:30;;;;;;;11.82;2.38;;;10.90;99.90;;;;;;5115646;28;20039;-76
2022/05/08 07:27:56;;;;;;;10.95;1.92;;;11.00;99.90;;;;;;5116381;28;20043;-78
2022/05/08 07:30:21;;;;;;;5.65;1.92;;;11.30;99.90;;;;;;5116557;28;20376;-78
2022/05/08 07:32:48;;;;;;;6.72;1.83;;;11.40;99.90;;;;;;5098870;28;20088;-81
2022/05/08 07:37:59;;;;;;;9.35;1.90;;;11.30;99.90;;;;;;5116457;28;20051;-83
2022/05/08 07:40:26;;;;;;;7.30;1.80;;;11.20;99.90;;;;;;5115326;28;20044;-79
2022/05/08 07:42:52;;;;;;;5.38;1.70;;;11.10;99.90;;;;;;5116362;28;20047;-79
2022/05/08 07:45:17;;;;;;;11.82;2.03;;;11.10;99.90;;;;;;5116257;28;20088;-79
2022/05/08 07:47:43;;;;;;;6.88;1.45;;;11.10;99.90;;;;;;5116227;28;20046;-79
2022/05/08 07:50:09;;;;;;;10.40;1.98;;;11.10;99.90;;;;;;5115924;28;20047;-77
2022/05/08 07:52:39;;;;;;;10.88;1.83;;;11.20;99.90;;;;;;5116292;28;20040;-77
2022/05/08 07:55:06;;;;;;;11.32;2.67;;;11.60;99.90;;;;;;5115865;28;20124;-77
2022/05/08 07:57:31;;;;;;;8.18;1.90;;;12.00;99.90;;;;;;5116286;28;20124;-81
2022/05/08 07:59:57;;;;;;;9.38;1.88;;;12.30;99.90;;;;;;5115208;28;20527;-78
2022/05/08 08:02:23;;;;;;;9.07;2.13;;;12.50;99.90;;;;;;5105748;28;20044;-79
2022/05/08 08:04:48;;;;;;;6.13;1.60;;;12.40;99.90;;;;;;5107975;28;20046;-82
2022/05/08 08:07:14;;;;;;;6.30;1.70;;;12.30;99.90;;;;;;5095313;28;20500;-79
2022/05/08 08:09:40;;;;;;;10.00;1.90;;;12.30;99.90;;;;;;5095255;28;20048;-77
2022/05/08 08:12:05;;;;;;;9.38;2.50;;;12.40;99.90;;;;;;5095402;28;20052;-79
2022/05/08 08:14:31;;;;;;;12.25;1.95;;;12.60;99.90;;;;;;5095101;28;20058;-78
2022/05/08 08:16:57;;;;;;;10.20;2.20;;;12.80;99.90;;;;;;5095385;28;20087;-76
2022/05/08 08:19:22;;;;;;;6.57;2.00;;;13.00;99.90;;;;;;5095398;28;20051;-79
2022/05/08 08:21:48;;;;;;;7.95;1.98;;;13.20;99.90;;;;;;5095130;28;20044;-85
2022/05/08 08:24:14;;;;;;;4.95;1.92;;;13.30;99.90;;;;;;5077255;28;20044;-76
2022/05/08 08:26:40;;;;;;;7.37;1.60;;;13.50;99.90;;;;;;5095039;28;20126;-77
2022/05/08 08:29:06;;;;;;;14.00;2.17;;;13.60;99.90;;;;;;5095433;28;20388;-80
2022/05/08 08:31:32;;;;;;;5.45;2.25;;;13.80;99.90;;;;;;5095015;28;20036;-84
2022/05/08 08:33:58;;;;;;;6.25;1.65;;;13.90;99.90;;;;;;5094220;28;20148;-79
2022/05/08 08:36:23;;;;;;;5.93;1.55;;;14.00;99.90;;;;;;5094807;28;20051;-76
2022/05/08 08:38:50;;;;;;;6.80;1.60;;;14.00;99.90;;;;;;5094536;28;20039;-77
2022/05/08 08:41:19;;;;;;;9.60;2.17;;;13.80;99.90;;;;;;5094821;28;20044;-77
2022/05/08 08:49:24;;;;;;;7.45;1.88;;;13.80;99.90;;;;;;5106261;28;20052;-75
2022/05/08 08:51:51;;;;;;;6.43;2.53;;;14.00;99.90;;;;;;5108550;28;20545;-78
2022/05/08 08:54:21;;;;;;;5.60;1.67;;;14.00;99.90;;;;;;5094799;28;20040;-79
2022/05/08 08:56:47;;;;;;;6.00;2.17;;;14.20;99.90;;;;;;5109468;28;20052;-77
2022/05/08 08:59:13;;;;;;;;;;;14.10;99.90;;;;;;5098417;28;20039;-79
2022/05/08 09:01:40;;;;;;;7.03;1.70;;;14.00;99.90;;;;;;5094483;28;20027;-80
2022/05/08 09:04:08;;;;;;;6.85;1.60;;;13.80;99.90;;;;;;5094354;28;20080;-78
2022/05/08 09:06:41;;;;;;;10.68;1.73;;;13.40;99.90;;;;;;5094247;28;20511;-76
2022/05/08 09:09:26;;;;;;;8.45;1.60;;;13.40;99.90;;;;;;5094544;28;20069;-76
2022/05/08 09:11:53;;;;;;;7.68;1.70;;;13.20;99.90;;;;;;5094202;28;20130;-77
2022/05/08 09:14:36;;;;;;;7.22;1.98;;;13.50;99.90;;;;;;5093742;28;20775;-78
2022/05/08 09:17:04;;;;;;;8.75;2.08;;;13.90;99.90;;;;;;5094084;28;20050;-78
2022/05/08 09:19:39;;;;;;;12.25;2.20;;;14.10;99.90;;;;;;5094096;28;20506;-78
2022/05/08 09:22:11;;;;;;;9.00;2.40;;;14.20;99.90;;;;;;5093922;28;20392;-80
2022/05/08 09:24:53;;;;;;;10.00;1.80;;;14.40;99.90;;;;;;5113148;28;20500;-74
2022/05/08 09:27:19;;;;;;;9.18;2.00;;;14.60;99.90;;;;;;5109009;28;20055;-77
2022/05/08 09:29:45;;;;;;;10.47;1.93;;;14.50;99.90;;;;;;5101089;28;20048;-82
2022/05/08 09:32:38;;;;;;;5.68;1.50;;;14.50;99.90;;;;;;5113797;28;20506;-84
2022/05/08 09:35:05;;;;;;;8.82;1.70;;;14.50;99.90;;;;;;5112041;28;20039;-82
2022/05/08 09:37:30;;;;;;;10.60;1.73;;;14.60;99.90;;;;;;5112831;28;20065;-80
2022/05/08 09:40:19;;;;;;;5.72;1.80;;;14.60;99.90;;;;;;5115030;28;20856;-83
2022/05/08 09:42:45;;;;;;;6.82;1.77;;;14.70;99.90;;;;;;5113768;28;20093;-84
2022/05/08 09:45:11;;;;;;;7.72;2.00;;;14.80;99.90;;;;;;5113161;28;20047;-83
2022/05/08 09:47:48;;;;;;;9.68;1.95;;;14.90;99.90;;;;;;5080903;28;20050;-82
2022/05/08 09:50:15;;;;;;;7.35;2.00;;;15.00;99.90;;;;;;5130439;28;20103;-82
2022/05/08 09:52:42;;;;;;;9.52;1.98;;;15.00;99.90;;;;;;5132021;28;20040;-82
2022/05/08 09:55:13;;;;;;;8.05;2.00;;;15.10;99.90;;;;;;5139420;27;20048;-81
2022/05/08 09:57:39;;;;;;;6.75;1.70;;;15.20;99.90;;;;;;5126180;28;20051;-80
2022/05/08 10:00:07;;;;;;;8.50;1.92;;;15.10;99.90;;;;;;5125411;28;20088;-80
2022/05/08 10:02:32;;;;;;;13.77;1.98;;;15.10;99.90;;;;;;5130963;28;20038;-77
2022/05/08 10:04:58;;;;;;;6.67;1.63;;;15.20;99.90;;;;;;5131957;28;20048;-79
2022/05/08 10:07:24;;;;;;;7.90;2.20;;;15.30;99.90;;;;;;5136372;28;20019;-79
2022/05/08 10:15:29;;;;;;;8.07;1.70;;;15.70;99.90;;;;;;5132508;28;20055;-79
2022/05/08 10:18:23;;;;;;;12.65;1.80;;;15.80;98.70;;;;;;5136412;28;20032;-77
2022/05/08 10:21:02;;;;;;;8.13;2.30;;;15.80;98.80;;;;;;5124848;28;20055;-79
2022/05/08 10:23:40;;;;;;;7.63;1.83;;;15.80;98.60;;;;;;5121886;28;20135;-78
2022/05/08 10:26:20;;;;;;;7.00;1.98;;;15.80;97.90;;;;;;5132454;28;20059;-76
2022/05/08 10:29:04;;;;;;;8.68;1.92;;;15.80;97.70;;;;;;5124962;28;20040;-79
2022/05/08 10:31:45;;;;;;;6.10;1.67;;;15.70;97.70;;;;;;5126365;28;20089;-82
2022/05/08 10:34:11;;;;;;;5.38;1.50;;;15.80;96.20;;;;;;5120739;28;20035;-79
2022/05/08 10:36:37;;;;;;;;;;;15.80;96.30;;;;;;5118186;28;20045;-81
2022/05/08 10:39:46;;;;;;;6.40;1.75;;;15.80;95.60;;;;;;5110691;28;20010;-86
2022/05/08 10:42:27;;;;;;;7.35;1.83;;;15.80;94.30;;;;;;5104816;28;20517;-82
2022/05/08 10:44:53;;;;;;;8.15;1.60;;;16.00;95.20;;;;;;5118707;28;20043;-81
2022/05/08 10:47:34;;;;;;;5.37;1.60;;;16.20;95.40;;;;;;5116478;28;20048;-78
2022/05/08 10:50:02;;;;;;;6.68;1.88;;;16.30;94.50;;;;;;5116444;28;20067;-80
2022/05/08 10:52:27;;;;;;;5.45;1.60;;;16.20;93.80;;;;;;5098761;28;20104;-75
2022/05/08 10:54:56;;;;;;;4.33;1.60;;;16.30;94.10;;;;;;5116699;28;20043;-77
2022/05/08 10:57:36;;;;;;;6.57;1.65;;;16.40;95.40;;;;;;5113192;28;20043;-79
2022/05/08 11:00:11;;;;;;;9.68;2.67;;;16.50;94.30;;;;;;5116589;28;20127;-80
2022/05/08 11:02:42;;;;;;;5.82;1.50;;;16.60;93.50;;;;;;5115294;28;20035;-79
2022/05/08 11:05:19;;;;;;;8.75;1.52;;;16.50;93.80;;;;;;5114517;28;20039;-77
2022/05/08 11:07:51;;;;;;;7.75;1.90;;;16.30;93.50;;;;;;5112795;28;20036;-78
2022/05/08 11:10:21;;;;;;;4.53;1.50;;;16.50;94.50;;;;;;5115731;28;20043;-82
2022/05/08 11:13:10;;;;;;;9.90;1.83;;;16.70;94.80;;;;;;5113407;28;20044;-79
2022/05/08 11:15:36;;;;;;;7.15;1.75;;;16.90;94.20;;;;;;5113088;28;20177;-78
2022/05/08 11:18:07;;;;;;;4.50;1.55;;;17.10;93.00;;;;;;5115484;28;20062;-82
2022/05/08 11:20:36;;;;;;;9.90;2.38;;;17.10;92.60;;;;;;5116325;28;20051;-82
2022/05/08 11:23:06;;;;;;;7.70;2.17;;;17.00;92.40;;;;;;5114797;28;20035;-78
2022/05/08 11:25:36;;;;;;;6.55;1.98;;;17.10;92.90;;;;;;5105665;28;20119;-81
2022/05/08 11:28:19;;;;;;;8.10;2.03;;;17.30;92.70;;;;;;5116368;28;20119;-80
2022/05/08 11:30:48;;;;;;;7.75;1.60;;;17.20;93.80;;;;;;5116933;28;20114;-76
2022/05/08 11:36:07;;;;;;;7.72;1.60;;;17.10;92.20;;;;;;5115231;28;20043;-81
2022/05/08 11:38:48;;;;;;;8.55;1.98;;;17.10;92.30;;;;;;5114871;28;20475;-84
2022/05/08 11:41:22;;;;;;;9.13;2.22;;;17.10;92.00;;;;;;5116200;28;20088;-83
2022/05/08 11:43:55;;;;;;;12.80;2.30;;;17.00;92.40;;;;;;5113599;28;20048;-81
2022/05/08 11:46:33;;;;;;;3.85;1.20;;;17.10;90.00;;;;;;5105217;28;20107;-79
2022/05/08 11:48:59;;;;;;;6.75;1.77;;;17.20;90.70;;;;;;5116051;28;20464;-76
2022/05/08 11:51:37;;;;;;;6.53;1.70;;;17.40;92.80;;;;;;5115528;28;20043;-77
2022/05/08 11:54:03;;;;;;;;;;;17.60;92.90;;;;;;5116492;28;20368;-78
2022/05/08 11:56:29;;;;;;;8.43;1.60;;;17.60;91.70;;;;;;5116171;28;19928;-77
2022/05/08 11:59:01;;;;;;;8.60;1.85;;;17.70;92.80;;;;;;5114822;28;20128;-79
2022/05/08 12:01:31;;;;;;;6.22;1.70;;;17.70;92.30;;;;;;5113996;28;20047;-76
2022/05/08 12:04:18;;;;;;;9.82;2.10;;;17.90;92.50;;;;;;5115464;28;20313;-75
2022/05/08 12:07:00;;;;;;;7.32;1.83;;;17.80;92.20;;;;;;5112504;28;20054;-77
2022/05/08 12:09:30;;;;;;;8.63;1.88;;;17.80;92.60;;;;;;5115008;28;20039;-75
2022/05/08 12:11:56;;;;;;;8.32;1.80;;;17.70;91.80;;;;;;5114776;28;20418;-78
2022/05/08 12:14:36;;;;;;;7.07;2.20;;;17.90;91.90;;;;;;5113808;28;20048;-76
2022/05/08 12:17:02;;;;;;;7.65;1.98;;;18.00;92.30;;;;;;5114658;28;20780;-78
2022/05/08 12:19:29;;;;;;;15.55;2.30;;;18.00;91.50;;;;;;5115650;28;20044;-78
2022/05/08 12:21:55;;;;;;;7.68;1.90;;;17.90;90.60;;;;;;5114983;28;20054;-77
2022/05/08 12:24:21;;;;;;;7.57;1.53;;;18.00;90.60;;;;;;5115463;28;20039;-78
2022/05/08 12:26:47;;;;;;;14.57;2.72;;;18.00;90.00;;;;;;5114961;28;20039;-76
2022/05/08 12:29:18;;;;;;;8.85;2.00;;;18.10;89.30;;;;;;5113794;28;20040;-74
2022/05/08 12:31:44;;;;;;;10.05;2.10;;;17.90;90.60;;;;;;5111760;28;20036;-78
2022/05/08 12:34:11;;;;;;;5.67;1.73;;;18.00;89.90;;;;;;5104835;28;20071;-77
2022/05/08 12:36:40;;;;;;;;;;;18.10;90.60;;;;;;5114990;28;20112;-77
2022/05/08 12:39:07;;;;;;;7.10;1.98;;;18.10;88.80;;;;;;5114622;28;19989;-78
2022/05/08 12:41:33;;;;;;;;;;;18.20;87.50;;;;;;5114616;28;20084;-81
2022/05/08 12:44:00;;;;;;;7.93;1.88;;;18.20;85.00;;;;;;5114234;28;20287;-77
2022/05/08 12:46:26;;;;;;;6.40;1.48;;;18.30;89.20;;;;;;5114379;28;20048;-77
2022/05/08 12:48:51;;;;;;;7.10;1.90;;;18.30;88.30;;;;;;5113203;28;20047;-77
2022/05/08 12:51:17;;;;;;;7.20;2.17;;;18.40;87.80;;;;;;5112765;28;20092;-78
2022/05/08 12:53:42;;;;;;;9.00;2.03;;;18.10;88.70;;;;;;5111789;28;20035;-84
2022/05/08 12:56:09;;;;;;;7.33;2.13;;;18.10;89.30;;;;;;5113099;28;20048;-78
2022/05/08 13:01:19;;;;;;;8.75;1.90;;;18.30;89.90;;;;;;5114062;28;20082;-78
2022/05/08 13:03:45;;;;;;;10.17;1.97;;;18.20;88.10;;;;;;5114818;28;20075;-78
2022/05/08 13:06:11;;;;;;;5.93;1.63;;;18.10;88.70;;;;;;5113571;28;20048;-75
2022/05/08 13:08:36;;;;;;;9.70;1.77;;;18.30;90.40;;;;;;5114516;28;20499;-77
2022/05/08 13:11:02;;;;;;;8.90;1.80;;;18.10;90.20;;;;;;5114668;28;20490;-76
2022/05/08 13:13:31;;;;;;;6.10;1.93;;;17.80;87.50;;;;;;5114706;28;20192;-76
2022/05/08 13:15:57;;;;;;;12.45;1.70;;;18.00;90.00;;;;;;5113790;28;20051;-76
2022/05/08 13:18:23;;;;;;;12.15;2.10;;;18.10;89.20;;;;;;5113382;28;20051;-76
2022/05/08 13:20:49;;;;;;;8.60;2.33;;;18.30;90.10;;;;;;5112144;28;20065;-75